Time;durP1;ratioP1;P1;durP2;ratioP2;P2;SDS_P1;SDS_P2;PMS_P1;PMS_P2;Temp;Humidity;BMP_temperature;BMP_pressure;BME280_temperature;BME280_humidity;BME280_pressure;Samples;Min_cycle;Max_cycle;Signal;HPM_P1;HPM_P2
2024/01/11 00:01:15;;;;;;;48.83;44.20;;;-6.00;99.90;;;;;;12303420;28;20564;-80
2024/01/11 00:07:17;;;;;;;52.20;46.92;;;-6.10;99.90;;;;;;12336738;28;20059;-81
2024/01/11 00:13:19;;;;;;;55.00;49.30;;;-6.10;99.90;;;;;;12318579;28;20133;-80
2024/01/11 00:19:21;;;;;;;55.00;49.53;;;-6.30;99.90;;;;;;12294695;28;20054;-80
2024/01/11 00:25:23;;;;;;;55.38;49.97;;;-6.20;99.90;;;;;;12333583;28;20051;-80
2024/01/11 00:31:25;;;;;;;52.63;47.03;;;-6.20;99.90;;;;;;12327256;28;20137;-79
2024/01/11 00:37:27;;;;;;;53.28;48.03;;;-6.20;99.90;;;;;;12317113;28;20066;-80
2024/01/11 00:43:29;;;;;;;51.90;47.50;;;-6.30;99.90;;;;;;12333140;28;20052;-80
2024/01/11 00:49:31;;;;;;;55.60;50.25;;;-6.30;99.90;;;;;;12312072;28;20062;-80
2024/01/11 00:55:33;;;;;;;55.25;49.95;;;-6.40;99.90;;;;;;12310200;28;20055;-80
2024/01/11 01:01:35;;;;;;;52.30;47.00;;;-6.30;99.90;;;;;;12316408;28;20419;-80
2024/01/11 01:07:37;;;;;;;57.88;52.70;;;-6.50;99.90;;;;;;12300925;28;20431;-80
2024/01/11 01:13:39;;;;;;;59.42;54.28;;;-6.60;99.90;;;;;;12320288;28;20047;-80
2024/01/11 01:19:41;;;;;;;58.20;52.78;;;-6.60;99.90;;;;;;12303606;28;20038;-80
2024/01/11 01:25:43;;;;;;;59.28;54.15;;;-6.60;99.90;;;;;;12306744;28;20473;-80
2024/01/11 01:31:45;;;;;;;63.55;57.92;;;-6.50;99.90;;;;;;12353650;28;20449;-80
2024/01/11 01:37:47;;;;;;;64.55;58.83;;;-6.50;99.90;;;;;;12318011;28;20487;-80
2024/01/11 01:43:49;;;;;;;72.60;66.25;;;-6.60;99.90;;;;;;12354632;28;20609;-80
2024/01/11 01:49:52;;;;;;;79.72;73.45;;;-6.60;99.90;;;;;;12310138;28;20051;-80
2024/01/11 01:55:55;;;;;;;78.65;72.18;;;-6.80;99.90;;;;;;12319269;28;20057;-79
2024/01/11 02:01:57;;;;;;;82.78;76.28;;;-6.80;99.90;;;;;;12341788;28;20059;-79
2024/01/11 02:08:03;;;;;;;80.53;73.97;;;-6.80;99.90;;;;;;12305635;28;20423;-80
2024/01/11 02:14:05;;;;;;;80.00;73.38;;;-6.80;99.90;;;;;;12332806;28;20130;-79
2024/01/11 02:20:08;;;;;;;79.18;72.65;;;-6.80;99.90;;;;;;12324359;28;20062;-79
2024/01/11 02:26:10;;;;;;;84.25;77.22;;;-6.70;99.90;;;;;;12329768;28;20078;-79
2024/01/11 02:32:12;;;;;;;77.40;71.28;;;-6.70;99.90;;;;;;12319358;28;20054;-79
2024/01/11 02:38:14;;;;;;;81.18;74.97;;;-6.60;99.90;;;;;;12342093;28;20053;-79
2024/01/11 02:44:17;;;;;;;83.95;77.40;;;-6.70;99.90;;;;;;12331161;28;20053;-79
2024/01/11 02:50:21;;;;;;;83.07;76.10;;;-6.70;99.90;;;;;;12392095;28;20051;-80
2024/01/11 02:56:23;;;;;;;;;;;-6.70;99.90;;;;;;12412277;28;20481;-79
2024/01/11 03:02:25;;;;;;;75.75;69.55;;;-6.70;99.90;;;;;;12338958;28;19927;-79
2024/01/11 03:08:27;;;;;;;77.82;71.43;;;-6.60;99.90;;;;;;12322614;28;20078;-79
2024/01/11 03:14:29;;;;;;;78.55;71.97;;;-6.60;99.90;;;;;;12316770;28;20054;-79
2024/01/11 03:20:31;;;;;;;75.22;69.30;;;-6.70;99.90;;;;;;12354493;28;20097;-79
2024/01/11 03:26:33;;;;;;;77.93;71.15;;;-6.70;99.90;;;;;;12340890;28;20137;-81
2024/01/11 03:32:35;;;;;;;78.90;72.53;;;-6.80;99.90;;;;;;12358228;28;20048;-79
2024/01/11 03:38:37;;;;;;;84.22;77.35;;;-6.80;99.90;;;;;;12313684;28;20055;-79
2024/01/11 03:44:39;;;;;;;82.03;75.53;;;-6.80;99.90;;;;;;12308714;28;20419;-79
2024/01/11 03:50:41;;;;;;;84.30;77.90;;;-6.80;99.90;;;;;;12327006;28;20588;-79
2024/01/11 03:56:43;;;;;;;90.20;83.13;;;-6.90;99.90;;;;;;12325867;28;20112;-80
2024/01/11 04:02:45;;;;;;;88.60;82.22;;;-6.90;99.90;;;;;;12333529;28;20160;-79
2024/01/11 04:08:48;;;;;;;86.13;79.38;;;-6.90;99.90;;;;;;12322267;28;20047;-79
2024/01/11 04:14:50;;;;;;;85.38;77.43;;;-7.00;99.90;;;;;;12322881;28;20053;-80
2024/01/11 04:20:52;;;;;;;81.95;75.45;;;-7.00;99.90;;;;;;12311021;28;20051;-80
2024/01/11 04:26:54;;;;;;;86.95;80.28;;;-7.00;99.90;;;;;;12301962;28;20043;-79
2024/01/11 04:32:56;;;;;;;87.32;80.22;;;-7.20;99.90;;;;;;12300897;28;20058;-79
2024/01/11 04:38:58;;;;;;;83.10;76.15;;;-7.10;99.90;;;;;;12365005;28;20055;-79
2024/01/11 04:45:00;;;;;;;75.93;69.97;;;-7.20;99.90;;;;;;12297248;28;20042;-79
2024/01/11 04:51:02;;;;;;;75.10;68.70;;;-7.20;99.90;;;;;;12316726;28;20566;-79
2024/01/11 04:57:05;;;;;;;76.70;70.47;;;-7.10;99.90;;;;;;12330299;28;20047;-79
2024/01/11 05:03:07;;;;;;;77.68;70.88;;;-7.10;99.90;;;;;;12325448;28;20074;-80
2024/01/11 05:09:09;;;;;;;77.15;70.10;;;-7.10;99.90;;;;;;12313269;28;20051;-80
2024/01/11 05:15:11;;;;;;;83.70;76.25;;;-7.10;99.90;;;;;;12310097;28;20054;-80
2024/01/11 05:21:13;;;;;;;84.35;77.40;;;-7.20;99.90;;;;;;12318889;28;20063;-80
2024/01/11 05:27:15;;;;;;;86.30;79.13;;;-6.90;99.90;;;;;;12311286;28;20047;-80
2024/01/11 05:33:17;;;;;;;87.22;79.72;;;-7.00;99.90;;;;;;12322490;28;20162;-80
2024/01/11 05:39:20;;;;;;;80.05;73.18;;;-6.70;99.90;;;;;;12331698;28;20071;-80
2024/01/11 05:45:22;;;;;;;81.60;75.18;;;-6.80;99.90;;;;;;12325610;28;20456;-80
2024/01/11 05:51:36;;;;;;;;;;;-6.80;99.90;;;;;;12321566;28;20482;-80
2024/01/11 05:57:38;;;;;;;79.70;73.20;;;-7.10;99.90;;;;;;12322225;28;19933;-83
2024/01/11 06:03:40;;;;;;;83.43;77.22;;;-7.20;99.90;;;;;;12326143;28;20483;-79
2024/01/11 06:09:42;;;;;;;82.97;75.60;;;-7.30;99.90;;;;;;12342634;28;20050;-80
2024/01/11 06:15:44;;;;;;;77.53;71.18;;;-7.30;99.90;;;;;;12341838;28;20463;-80
2024/01/11 06:21:46;;;;;;;73.88;66.72;;;-7.20;99.90;;;;;;12322492;28;20427;-80
2024/01/11 06:27:48;;;;;;;67.70;62.33;;;-7.10;99.90;;;;;;12321202;28;20055;-80
2024/01/11 06:33:51;;;;;;;73.45;66.63;;;-7.10;99.90;;;;;;12318880;28;20058;-80
2024/01/11 06:39:53;;;;;;;69.88;63.47;;;-7.10;99.90;;;;;;12358616;28;20074;-80
2024/01/11 06:45:54;;;;;;;71.85;65.50;;;-7.00;99.90;;;;;;12331906;28;20057;-81
2024/01/11 06:51:56;;;;;;;71.80;65.22;;;-7.00;99.90;;;;;;12334234;28;20057;-81
2024/01/11 06:57:59;;;;;;;80.25;73.38;;;-7.10;99.90;;;;;;12306867;28;20055;-80
2024/01/11 07:04:01;;;;;;;79.45;72.68;;;-6.90;99.90;;;;;;12328606;28;20066;-80
2024/01/11 07:10:05;;;;;;;80.20;73.05;;;-7.00;99.90;;;;;;12325265;28;20173;-80
2024/01/11 07:16:07;;;;;;;79.88;73.68;;;-7.00;99.90;;;;;;12327882;28;20062;-80
2024/01/11 07:22:09;;;;;;;86.20;78.82;;;-7.00;99.90;;;;;;12368392;28;20051;-80
2024/01/11 07:28:11;;;;;;;89.32;81.40;;;-7.10;99.90;;;;;;12321759;28;20335;-80
2024/01/11 07:34:13;;;;;;;86.28;78.70;;;-7.00;99.90;;;;;;12322926;28;20051;-79
2024/01/11 07:40:16;;;;;;;83.53;76.57;;;-7.20;99.90;;;;;;12332616;28;20062;-82
2024/01/11 07:46:18;;;;;;;84.93;77.43;;;-7.20;99.90;;;;;;12323465;28;20051;-80
2024/01/11 07:52:21;;;;;;;83.82;76.38;;;-7.20;99.90;;;;;;12316862;28;20056;-80
2024/01/11 07:58:23;;;;;;;79.18;72.05;;;-7.20;99.90;;;;;;12321052;28;20138;-80
2024/01/11 08:04:25;;;;;;;78.47;72.18;;;-7.10;99.90;;;;;;12353495;28;20061;-81
2024/01/11 08:10:27;;;;;;;78.93;72.60;;;-6.90;99.90;;;;;;12310458;28;20043;-80
2024/01/11 08:16:29;;;;;;;79.20;73.00;;;-6.50;99.90;;;;;;12320804;28;20043;-80
2024/01/11 08:22:34;;;;;;;81.15;73.75;;;-6.30;99.90;;;;;;12307336;28;20058;-80
2024/01/11 08:28:36;;;;;;;82.18;74.72;;;-6.30;99.90;;;;;;12309625;28;20046;-80
2024/01/11 08:34:39;;;;;;;74.38;67.47;;;-6.20;99.90;;;;;;12327502;28;20046;-80
2024/01/11 08:40:41;;;;;;;71.32;64.97;;;-5.90;99.90;;;;;;12309579;28;20138;-80
2024/01/11 08:46:43;;;;;;;71.88;65.85;;;-5.60;99.90;;;;;;12316486;28;20489;-80
2024/01/11 08:52:46;;;;;;;73.07;66.78;;;-5.70;99.90;;;;;;12337702;28;20554;-80
2024/01/11 08:58:48;;;;;;;70.28;64.60;;;-5.40;99.90;;;;;;12310071;28;20104;-79
2024/01/11 09:04:50;;;;;;;64.93;59.78;;;-5.30;99.90;;;;;;12325595;28;20042;-82
2024/01/11 09:10:53;;;;;;;65.65;60.22;;;-5.10;99.90;;;;;;12338725;28;20054;-81
2024/01/11 09:16:55;;;;;;;66.07;60.70;;;-4.90;99.90;;;;;;12313799;28;20181;-81
2024/01/11 09:22:57;;;;;;;67.07;61.08;;;-4.90;99.90;;;;;;12302563;28;20046;-80
2024/01/11 09:28:59;;;;;;;66.45;60.88;;;-4.80;99.90;;;;;;12380951;28;20061;-80
2024/01/11 09:35:04;;;;;;;65.60;60.17;;;-4.80;99.90;;;;;;12393457;28;20047;-79
2024/01/11 09:41:08;;;;;;;63.92;58.40;;;-5.00;99.90;;;;;;12357470;28;20115;-80
2024/01/11 09:47:15;;;;;;;56.72;51.83;;;-4.70;99.90;;;;;;12390372;28;20035;-80
2024/01/11 09:53:20;;;;;;;51.53;46.65;;;-4.40;99.90;;;;;;12360072;28;20031;-82
2024/01/11 09:59:24;;;;;;;57.30;52.15;;;-4.00;99.90;;;;;;12382760;28;20055;-81
2024/01/11 10:05:29;;;;;;;49.80;45.43;;;-4.20;99.90;;;;;;12372708;28;20070;-80
2024/01/11 10:11:31;;;;;;;45.13;40.70;;;-4.00;99.90;;;;;;12329513;28;20051;-81
2024/01/11 10:17:33;;;;;;;44.17;40.05;;;-3.70;99.90;;;;;;12338201;28;20063;-80
2024/01/11 10:23:39;;;;;;;46.70;43.13;;;-3.60;99.90;;;;;;12323842;28;20051;-80
2024/01/11 10:29:41;;;;;;;47.00;43.60;;;-3.30;99.90;;;;;;12333104;28;20047;-80
2024/01/11 10:35:43;;;;;;;54.55;50.78;;;-3.00;99.90;;;;;;12340328;28;20054;-81
2024/01/11 10:41:50;;;;;;;69.22;64.78;;;-2.80;99.90;;;;;;12316957;28;20043;-81
2024/01/11 10:48:05;;;;;;;86.28;80.88;;;-2.50;99.90;;;;;;12316225;28;20122;-81
2024/01/11 10:54:07;;;;;;;97.93;91.68;;;-2.30;99.90;;;;;;12315997;28;20076;-81
2024/01/11 11:00:12;;;;;;;104.10;97.53;;;-2.40;99.90;;;;;;12342329;28;20055;-81
2024/01/11 11:06:15;;;;;;;;;;;-2.40;99.90;;;;;;12316071;28;20152;-83
2024/01/11 11:12:19;;;;;;;96.50;89.85;;;-2.50;99.90;;;;;;12348103;28;19930;-81
2024/01/11 11:18:22;;;;;;;91.80;84.72;;;-2.60;99.90;;;;;;12325709;28;20050;-81
2024/01/11 11:24:24;;;;;;;88.45;82.00;;;-2.50;99.90;;;;;;12318324;28;20510;-81
2024/01/11 11:30:27;;;;;;;89.95;83.22;;;-2.60;99.90;;;;;;12306374;28;20055;-81
2024/01/11 11:36:32;;;;;;;82.65;76.03;;;-2.60;99.90;;;;;;12398231;28;20044;-80
2024/01/11 11:42:35;;;;;;;80.55;74.00;;;-2.40;99.90;;;;;;12345652;28;20063;-80
2024/01/11 11:48:40;;;;;;;83.68;76.47;;;-2.20;99.90;;;;;;12352183;28;20062;-82
2024/01/11 11:54:43;;;;;;;89.63;82.80;;;-2.30;99.90;;;;;;12328364;28;20796;-81
2024/01/11 12:00:47;;;;;;;95.45;88.05;;;-2.50;99.90;;;;;;12326308;28;20051;-81
2024/01/11 12:06:50;;;;;;;96.50;88.78;;;-2.50;99.90;;;;;;12330374;28;20180;-84
2024/01/11 12:12:52;;;;;;;96.75;89.50;;;-2.40;99.90;;;;;;12312675;28;20411;-80
2024/01/11 12:18:54;;;;;;;97.82;90.85;;;-2.40;99.90;;;;;;12312433;28;20439;-81
2024/01/11 12:24:57;;;;;;;102.93;95.55;;;-2.10;99.90;;;;;;12308751;28;20538;-82
2024/01/11 12:30:59;;;;;;;112.07;104.13;;;-2.00;99.90;;;;;;12327625;28;20058;-81
2024/01/11 12:37:05;;;;;;;122.05;113.13;;;-1.80;99.90;;;;;;12329634;28;20062;-82
2024/01/11 12:43:08;;;;;;;131.23;122.03;;;-1.60;99.90;;;;;;12328915;28;20053;-82
2024/01/11 12:49:10;;;;;;;132.55;122.50;;;-1.60;99.90;;;;;;12323035;28;20080;-83
2024/01/11 12:55:20;;;;;;;135.93;125.72;;;-1.60;99.90;;;;;;12332845;28;20062;-84
2024/01/11 13:01:22;;;;;;;130.73;120.82;;;-1.70;99.90;;;;;;12324276;28;20074;-83
2024/01/11 13:07:25;;;;;;;129.80;119.97;;;-1.70;99.90;;;;;;12322328;28;20146;-81
2024/01/11 13:13:30;;;;;;;135.10;124.83;;;-1.60;99.90;;;;;;12314582;28;20111;-81
2024/01/11 13:19:32;;;;;;;132.03;122.00;;;-1.70;99.90;;;;;;12352098;28;20043;-81
2024/01/11 13:25:34;;;;;;;129.07;119.55;;;-1.80;99.90;;;;;;12310533;28;20062;-81
2024/01/11 13:31:36;;;;;;;130.25;120.40;;;-1.80;99.90;;;;;;12297916;28;20044;-81
2024/01/11 13:37:38;;;;;;;135.25;125.47;;;-1.70;99.90;;;;;;12306556;28;20054;-80
2024/01/11 13:43:40;;;;;;;135.00;124.72;;;-1.70;99.90;;;;;;12307217;28;20058;-81
2024/01/11 13:49:42;;;;;;;132.57;123.15;;;-1.70;99.90;;;;;;12323636;28;20044;-81
2024/01/11 13:55:45;;;;;;;128.60;118.72;;;-1.80;99.90;;;;;;12311602;28;20057;-80
2024/01/11 14:01:47;;;;;;;125.50;116.07;;;-1.80;99.90;;;;;;12362251;28;20062;-81
2024/01/11 14:07:55;;;;;;;126.57;116.85;;;-1.80;99.90;;;;;;12319450;28;20060;-82
2024/01/11 14:13:57;;;;;;;130.20;120.70;;;-1.90;99.90;;;;;;12317273;28;20050;-82
2024/01/11 14:20:00;;;;;;;120.97;112.03;;;-1.80;99.90;;;;;;12322789;28;20047;-81
2024/01/11 14:26:03;;;;;;;127.90;118.65;;;-1.80;99.90;;;;;;12310262;28;20052;-82
2024/01/11 14:32:06;;;;;;;126.15;116.63;;;-1.70;99.90;;;;;;12321523;28;20155;-81
2024/01/11 14:38:08;;;;;;;129.18;119.38;;;-1.60;99.90;;;;;;12341775;28;20067;-81
2024/01/11 14:44:10;;;;;;;129.65;120.25;;;-1.60;99.90;;;;;;12322026;28;20727;-81
2024/01/11 14:50:12;;;;;;;127.53;118.60;;;-1.60;99.90;;;;;;12325986;28;20085;-81
2024/01/11 14:56:14;;;;;;;131.48;121.97;;;-1.60;99.90;;;;;;12316546;28;20137;-81
2024/01/11 15:02:17;;;;;;;130.13;120.53;;;-1.50;99.90;;;;;;12334174;28;20061;-81
2024/01/11 15:08:19;;;;;;;132.48;123.10;;;-1.50;99.90;;;;;;12329707;28;20107;-82
2024/01/11 15:14:21;;;;;;;133.30;124.10;;;-1.40;99.90;;;;;;12321007;28;20054;-81
2024/01/11 15:20:23;;;;;;;129.85;120.47;;;-1.40;99.90;;;;;;12357880;28;20621;-81
2024/01/11 15:26:26;;;;;;;127.32;117.85;;;-1.30;99.90;;;;;;12319809;28;20044;-82
2024/01/11 15:32:28;;;;;;;129.27;120.30;;;-1.30;99.90;;;;;;12321355;28;20054;-82
2024/01/11 15:38:30;;;;;;;137.77;128.07;;;-1.20;99.90;;;;;;12332405;28;20054;-82
2024/01/11 15:44:34;;;;;;;138.48;127.93;;;-1.20;99.90;;;;;;12329891;28;20143;-81
2024/01/11 15:50:36;;;;;;;147.77;136.90;;;-1.20;99.90;;;;;;12332056;28;20046;-82
2024/01/11 15:56:38;;;;;;;147.20;136.35;;;-1.10;99.90;;;;;;12319426;28;20137;-82
2024/01/11 16:02:41;;;;;;;145.32;134.75;;;-1.20;99.90;;;;;;12312079;28;20483;-82
2024/01/11 16:08:44;;;;;;;156.47;144.90;;;-1.20;99.90;;;;;;12328645;28;20054;-82
2024/01/11 16:14:46;;;;;;;150.02;139.40;;;-1.20;99.90;;;;;;12313726;28;20077;-82
2024/01/11 16:20:49;;;;;;;149.02;137.82;;;-1.20;99.90;;;;;;12340707;28;20134;-82
2024/01/11 16:26:51;;;;;;;147.85;137.45;;;-1.10;99.90;;;;;;12317837;28;20483;-83
2024/01/11 16:32:54;;;;;;;145.73;135.65;;;-1.20;99.90;;;;;;12310593;28;20065;-82
2024/01/11 16:38:56;;;;;;;146.68;136.25;;;-1.00;99.90;;;;;;12360302;28;20051;-81
2024/01/11 16:44:58;;;;;;;154.93;144.00;;;-1.00;99.90;;;;;;12306637;28;20050;-82
2024/01/11 16:51:01;;;;;;;159.68;148.90;;;-0.90;99.90;;;;;;12325662;28;20138;-82
2024/01/11 16:57:04;;;;;;;158.05;146.80;;;-0.90;99.90;;;;;;12361064;28;20053;-83
2024/01/11 17:03:06;;;;;;;154.88;144.05;;;-0.80;99.90;;;;;;12313890;28;20055;-82
2024/01/11 17:09:09;;;;;;;146.38;135.60;;;-1.00;99.90;;;;;;12308758;28;20070;-82
2024/01/11 17:15:11;;;;;;;145.13;134.50;;;-1.00;99.90;;;;;;12323644;28;20051;-83
2024/01/11 17:21:14;;;;;;;137.75;127.78;;;-0.90;99.90;;;;;;12314499;28;20055;-82
2024/01/11 17:27:16;;;;;;;136.80;126.70;;;-1.00;99.90;;;;;;12308645;28;20407;-82
2024/01/11 17:33:18;;;;;;;140.60;130.57;;;-0.80;99.90;;;;;;12298653;28;20078;-82
2024/01/11 17:39:22;;;;;;;143.93;133.07;;;-0.90;99.90;;;;;;12365639;28;20770;-83
2024/01/11 17:45:24;;;;;;;142.27;132.13;;;-0.80;99.90;;;;;;12317129;28;20492;-83
2024/01/11 17:51:27;;;;;;;137.50;127.50;;;-0.80;99.90;;;;;;12330121;28;20050;-83
2024/01/11 17:57:29;;;;;;;149.60;138.35;;;-0.70;99.90;;;;;;12323486;28;20058;-83
2024/01/11 18:03:31;;;;;;;150.05;139.00;;;-0.60;99.90;;;;;;12325127;28;20520;-83
2024/01/11 18:09:36;;;;;;;154.57;143.45;;;-0.50;99.90;;;;;;12316091;28;20102;-83
2024/01/11 18:15:38;;;;;;;159.27;147.93;;;-0.50;99.90;;;;;;12331848;28;20055;-82
2024/01/11 18:21:40;;;;;;;159.05;147.73;;;-0.50;99.90;;;;;;12313051;28;20055;-83
2024/01/11 18:27:42;;;;;;;163.43;151.55;;;-0.50;99.90;;;;;;12302023;28;20047;-83
2024/01/11 18:33:46;;;;;;;163.18;151.18;;;-0.40;99.90;;;;;;12310146;28;20051;-83
2024/01/11 18:39:48;;;;;;;161.02;149.27;;;-0.40;99.90;;;;;;12342313;28;20063;-83
2024/01/11 18:45:50;;;;;;;165.23;153.35;;;-0.30;99.90;;;;;;12333229;28;20070;-83
2024/01/11 18:51:53;;;;;;;162.10;150.50;;;-0.30;99.90;;;;;;12323506;28;20488;-83
2024/01/11 18:57:55;;;;;;;162.23;150.68;;;-0.30;99.90;;;;;;12323104;28;20047;-84
2024/01/11 19:03:57;;;;;;;161.80;149.68;;;-0.40;99.90;;;;;;12313438;28;20062;-83
2024/01/11 19:10:00;;;;;;;164.88;152.65;;;-0.30;99.90;;;;;;12326038;28;20811;-84
2024/01/11 19:16:02;;;;;;;167.93;155.80;;;-0.30;99.90;;;;;;12323572;28;20047;-84
2024/01/11 19:22:04;;;;;;;168.73;156.43;;;-0.20;99.90;;;;;;12317119;28;20052;-84
2024/01/11 19:28:07;;;;;;;166.18;154.02;;;-0.10;99.90;;;;;;12320258;28;20047;-83
2024/01/11 19:34:11;;;;;;;164.90;152.43;;;-0.20;99.90;;;;;;12326731;28;20059;-84
2024/01/11 19:40:14;;;;;;;166.47;153.37;;;-0.20;99.90;;;;;;12355756;28;20744;-83
2024/01/11 19:46:20;;;;;;;166.60;154.55;;;-0.20;99.90;;;;;;12301456;28;20302;-83
2024/01/11 19:52:22;;;;;;;163.43;151.02;;;-0.20;99.90;;;;;;12313425;28;20058;-84
2024/01/11 19:58:24;;;;;;;167.77;155.43;;;-0.20;99.90;;;;;;12331464;28;20059;-85
2024/01/11 20:04:26;;;;;;;175.15;162.48;;;-0.20;99.90;;;;;;12319947;28;20051;-84
2024/01/11 20:10:28;;;;;;;171.48;158.63;;;-0.10;99.90;;;;;;12314823;28;20459;-84
2024/01/11 20:16:31;;;;;;;176.50;163.18;;;-0.10;99.90;;;;;;12334726;28;20425;-84
2024/01/11 20:22:33;;;;;;;172.05;158.45;;;-0.10;99.90;;;;;;12326510;28;20081;-84
2024/01/11 20:28:34;;;;;;;167.35;154.57;;;-0.10;99.90;;;;;;12305608;28;20427;-84
2024/01/11 20:34:36;;;;;;;167.95;154.38;;;-0.20;99.90;;;;;;12309032;28;20063;-84
2024/01/11 20:40:38;;;;;;;166.38;153.80;;;-0.20;99.90;;;;;;12318766;28;20055;-84
2024/01/11 20:46:41;;;;;;;163.25;150.15;;;-0.30;99.90;;;;;;12323087;28;20047;-85
2024/01/11 20:52:43;;;;;;;164.05;151.63;;;-0.20;99.90;;;;;;12322793;28;20046;-84
2024/01/11 20:58:45;;;;;;;161.57;148.88;;;-0.20;99.90;;;;;;12373477;28;21365;-85
2024/01/11 21:04:47;;;;;;;160.75;148.57;;;-0.20;99.90;;;;;;12316279;28;20077;-85
2024/01/11 21:10:49;;;;;;;165.90;152.52;;;-0.20;99.90;;;;;;12323622;28;20053;-85
2024/01/11 21:16:51;;;;;;;169.35;155.93;;;-0.10;99.90;;;;;;12333618;28;20081;-84
2024/01/11 21:22:53;;;;;;;166.60;153.27;;;-0.10;99.90;;;;;;12319596;28;20100;-85
2024/01/11 21:28:55;;;;;;;168.95;155.45;;;-0.10;99.90;;;;;;12313405;28;20044;-84
2024/01/11 21:34:57;;;;;;;176.35;162.70;;;0.00;99.90;;;;;;12346506;28;20048;-85
2024/01/11 21:40:59;;;;;;;181.02;166.73;;;0.00;99.90;;;;;;12381377;28;20066;-84
2024/01/11 21:47:01;;;;;;;189.57;175.02;;;0.10;99.90;;;;;;12323740;28;20054;-87
2024/01/11 21:53:03;;;;;;;191.88;177.57;;;0.00;99.90;;;;;;12325713;28;20499;-85
2024/01/11 21:59:07;;;;;;;199.60;184.40;;;0.10;99.90;;;;;;12339064;28;20073;-84
2024/01/11 22:05:09;;;;;;;202.63;186.80;;;0.00;99.90;;;;;;12319326;28;20065;-84
2024/01/11 22:11:11;;;;;;;201.10;186.40;;;0.00;99.90;;;;;;12314658;28;20120;-85
2024/01/11 22:17:13;;;;;;;192.32;177.48;;;0.10;99.90;;;;;;12331286;28;20054;-85
2024/01/11 22:23:15;;;;;;;199.32;183.60;;;0.00;99.90;;;;;;12319944;28;20066;-85
2024/01/11 22:29:17;;;;;;;199.57;183.93;;;0.00;99.90;;;;;;12315091;28;20069;-85
2024/01/11 22:35:19;;;;;;;201.02;186.55;;;0.10;99.90;;;;;;12319768;28;20055;-85
2024/01/11 22:41:22;;;;;;;200.23;184.45;;;0.10;99.90;;;;;;12327168;28;20136;-85
2024/01/11 22:47:24;;;;;;;198.48;183.57;;;0.00;99.90;;;;;;12315107;28;20039;-85
2024/01/11 22:53:26;;;;;;;193.30;177.90;;;0.10;99.90;;;;;;12329527;28;20070;-85
2024/01/11 22:59:28;;;;;;;194.27;178.38;;;0.00;99.90;;;;;;12333567;28;20415;-85
2024/01/11 23:05:32;;;;;;;187.02;172.82;;;0.00;99.90;;;;;;12332051;28;20051;-85
2024/01/11 23:11:34;;;;;;;189.38;174.00;;;0.00;99.90;;;;;;12344206;28;20381;-85
2024/01/11 23:17:37;;;;;;;185.73;170.25;;;0.10;99.90;;;;;;12339446;28;20051;-85
2024/01/11 23:23:39;;;;;;;177.52;163.10;;;0.10;99.90;;;;;;12347466;28;20439;-85
2024/01/11 23:29:41;;;;;;;178.40;163.93;;;0.00;99.90;;;;;;12328945;28;20044;-85
2024/01/11 23:35:43;;;;;;;183.23;168.25;;;0.00;99.90;;;;;;12357145;28;20062;-85
2024/01/11 23:41:45;;;;;;;189.02;173.60;;;0.00;99.90;;;;;;12343955;28;20289;-86
2024/01/11 23:47:47;;;;;;;192.70;176.98;;;0.00;99.90;;;;;;12340874;28;20051;-85
2024/01/11 23:53:49;;;;;;;190.30;175.45;;;0.10;99.90;;;;;;12326619;28;20051;-85
2024/01/11 23:59:51;;;;;;;191.80;175.50;;;0.00;99.90;;;;;;12339890;28;20048;-85
